sensor_id;sensor_type;location;lat;lon;timestamp;temperature;humidity
55329;DHT22;41205;44.264;19.884;2022-07-23T00:00:53;614.50;1561.60
55329;DHT22;41205;44.264;19.884;2022-07-23T00:03:19;614.50;1561.60
55329;DHT22;41205;44.264;19.884;2022-07-23T00:05:44;614.40;1561.60
55329;DHT22;41205;44.264;19.884;2022-07-23T00:08:10;614.40;1561.60
55329;DHT22;41205;44.264;19.884;2022-07-23T00:10:36;614.40;1561.60
55329;DHT22;41205;44.264;19.884;2022-07-23T00:13:01;614.40;1561.60
55329;DHT22;41205;44.264;19.884;2022-07-23T00:15:27;614.40;1561.60
55329;DHT22;41205;44.264;19.884;2022-07-23T00:17:53;589.70;1587.20
55329;DHT22;41205;44.264;19.884;2022-07-23T00:20:18;589.70;1587.20
55329;DHT22;41205;44.264;19.884;2022-07-23T00:22:51;589.70;1561.60
55329;DHT22;41205;44.264;19.884;2022-07-23T00:25:16;589.70;1561.60
55329;DHT22;41205;44.264;19.884;2022-07-23T00:27:42;589.70;1587.20
55329;DHT22;41205;44.264;19.884;2022-07-23T00:30:08;589.70;1587.20
55329;DHT22;41205;44.264;19.884;2022-07-23T00:32:50;589.60;1587.20
55329;DHT22;41205;44.264;19.884;2022-07-23T00:35:18;589.60;1587.20
55329;DHT22;41205;44.264;19.884;2022-07-23T00:37:44;589.50;1587.20
55329;DHT22;41205;44.264;19.884;2022-07-23T00:40:10;589.50;1587.20
55329;DHT22;41205;44.264;19.884;2022-07-23T00:42:35;589.50;1587.20
55329;DHT22;41205;44.264;19.884;2022-07-23T00:45:01;589.50;1587.20
55329;DHT22;41205;44.264;19.884;2022-07-23T00:47:27;589.40;1587.20
55329;DHT22;41205;44.264;19.884;2022-07-23T00:49:52;589.40;1587.20
55329;DHT22;41205;44.264;19.884;2022-07-23T00:52:18;589.40;1587.20
55329;DHT22;41205;44.264;19.884;2022-07-23T00:54:44;589.40;1587.20
55329;DHT22;41205;44.264;19.884;2022-07-23T00:57:09;589.40;1587.20
55329;DHT22;41205;44.264;19.884;2022-07-23T00:59:35;589.40;1612.80
55329;DHT22;41205;44.264;19.884;2022-07-23T01:02:00;589.30;1612.80
55329;DHT22;41205;44.264;19.884;2022-07-23T01:04:26;589.20;1612.80
55329;DHT22;41205;44.264;19.884;2022-07-23T01:06:51;589.30;1612.80
55329;DHT22;41205;44.264;19.884;2022-07-23T01:09:17;589.20;1612.80
55329;DHT22;41205;44.264;19.884;2022-07-23T01:11:43;588.80;1638.40
55329;DHT22;41205;44.264;19.884;2022-07-23T01:16:34;589.00;1638.40
55329;DHT22;41205;44.264;19.884;2022-07-23T01:19:00;589.00;1612.80
55329;DHT22;41205;44.264;19.884;2022-07-23T01:21:25;589.00;1612.80
55329;DHT22;41205;44.264;19.884;2022-07-23T01:23:51;589.00;1612.80
55329;DHT22;41205;44.264;19.884;2022-07-23T01:26:16;589.00;1612.80
55329;DHT22;41205;44.264;19.884;2022-07-23T01:28:42;589.00;1612.80
55329;DHT22;41205;44.264;19.884;2022-07-23T01:31:08;589.00;1612.80
55329;DHT22;41205;44.264;19.884;2022-07-23T01:33:33;589.00;1612.80
55329;DHT22;41205;44.264;19.884;2022-07-23T01:35:59;589.00;1612.80
55329;DHT22;41205;44.264;19.884;2022-07-23T01:38:24;589.00;1587.20
55329;DHT22;41205;44.264;19.884;2022-07-23T01:40:50;589.00;1612.80
55329;DHT22;41205;44.264;19.884;2022-07-23T01:43:16;589.00;1612.80
55329;DHT22;41205;44.264;19.884;2022-07-23T01:45:41;589.00;1612.80
55329;DHT22;41205;44.264;19.884;2022-07-23T01:48:09;589.00;1587.20
55329;DHT22;41205;44.264;19.884;2022-07-23T01:50:34;589.00;1587.20
55329;DHT22;41205;44.264;19.884;2022-07-23T01:53:00;589.00;1612.80
55329;DHT22;41205;44.264;19.884;2022-07-23T01:55:25;589.00;1612.80
55329;DHT22;41205;44.264;19.884;2022-07-23T01:57:51;589.00;1612.80
55329;DHT22;41205;44.264;19.884;2022-07-23T02:00:17;588.90;1638.40
55329;DHT22;41205;44.264;19.884;2022-07-23T02:02:42;588.80;1664.00
55329;DHT22;41205;44.264;19.884;2022-07-23T02:05:08;564.10;1689.60
55329;DHT22;41205;44.264;19.884;2022-07-23T02:07:33;564.00;1715.20
55329;DHT22;41205;44.264;19.884;2022-07-23T02:09:59;564.00;1715.20
55329;DHT22;41205;44.264;19.884;2022-07-23T02:12:25;564.00;1715.20
55329;DHT22;41205;44.264;19.884;2022-07-23T02:14:50;564.00;1715.20
55329;DHT22;41205;44.264;19.884;2022-07-23T02:17:16;564.00;1689.60
55329;DHT22;41205;44.264;19.884;2022-07-23T02:19:41;564.00;1689.60
55329;DHT22;41205;44.264;19.884;2022-07-23T02:22:07;564.00;1689.60
55329;DHT22;41205;44.264;19.884;2022-07-23T02:24:32;564.00;1689.60
55329;DHT22;41205;44.264;19.884;2022-07-23T02:26:58;563.90;1689.60
55329;DHT22;41205;44.264;19.884;2022-07-23T02:29:23;564.00;1664.00
55329;DHT22;41205;44.264;19.884;2022-07-23T02:31:49;564.00;1664.00
55329;DHT22;41205;44.264;19.884;2022-07-23T02:34:14;564.10;1689.60
55329;DHT22;41205;44.264;19.884;2022-07-23T02:36:40;563.90;1689.60
55329;DHT22;41205;44.264;19.884;2022-07-23T02:39:06;563.90;1689.60
55329;DHT22;41205;44.264;19.884;2022-07-23T02:41:31;563.70;1715.20
55329;DHT22;41205;44.264;19.884;2022-07-23T02:43:57;563.70;1715.20
55329;DHT22;41205;44.264;19.884;2022-07-23T02:46:22;563.70;1715.20
55329;DHT22;41205;44.264;19.884;2022-07-23T02:48:48;563.70;1715.20
55329;DHT22;41205;44.264;19.884;2022-07-23T02:51:13;563.70;1689.60
55329;DHT22;41205;44.264;19.884;2022-07-23T02:53:39;563.60;1689.60
55329;DHT22;41205;44.264;19.884;2022-07-23T02:56:04;563.70;1715.20
55329;DHT22;41205;44.264;19.884;2022-07-23T02:58:30;563.60;1715.20
55329;DHT22;41205;44.264;19.884;2022-07-23T03:00:55;563.60;1715.20
55329;DHT22;41205;44.264;19.884;2022-07-23T03:03:21;563.60;1715.20
55329;DHT22;41205;44.264;19.884;2022-07-23T03:05:47;563.60;1715.20
55329;DHT22;41205;44.264;19.884;2022-07-23T03:08:12;563.60;1740.80
55329;DHT22;41205;44.264;19.884;2022-07-23T03:10:38;563.50;1740.80
55329;DHT22;41205;44.264;19.884;2022-07-23T03:13:04;563.60;1766.40
55329;DHT22;41205;44.264;19.884;2022-07-23T03:15:29;563.40;1766.40
55329;DHT22;41205;44.264;19.884;2022-07-23T03:17:55;563.40;1740.80
55329;DHT22;41205;44.264;19.884;2022-07-23T03:20:20;563.40;1740.80
55329;DHT22;41205;44.264;19.884;2022-07-23T03:22:46;563.40;1740.80
55329;DHT22;41205;44.264;19.884;2022-07-23T03:25:11;563.40;1740.80
55329;DHT22;41205;44.264;19.884;2022-07-23T03:27:37;563.50;1740.80
55329;DHT22;41205;44.264;19.884;2022-07-23T03:30:02;563.40;1740.80
55329;DHT22;41205;44.264;19.884;2022-07-23T03:32:28;563.50;1740.80
55329;DHT22;41205;44.264;19.884;2022-07-23T03:34:54;563.50;1715.20
55329;DHT22;41205;44.264;19.884;2022-07-23T03:37:20;563.60;1715.20
55329;DHT22;41205;44.264;19.884;2022-07-23T03:39:45;563.60;1715.20
55329;DHT22;41205;44.264;19.884;2022-07-23T03:42:11;563.60;1715.20
55329;DHT22;41205;44.264;19.884;2022-07-23T03:44:37;563.70;1715.20
55329;DHT22;41205;44.264;19.884;2022-07-23T03:47:04;563.80;1689.60
55329;DHT22;41205;44.264;19.884;2022-07-23T03:49:29;563.80;1689.60
55329;DHT22;41205;44.264;19.884;2022-07-23T03:51:55;563.90;1689.60
55329;DHT22;41205;44.264;19.884;2022-07-23T03:54:20;564.00;1689.60
55329;DHT22;41205;44.264;19.884;2022-07-23T03:56:46;564.00;1689.60
55329;DHT22;41205;44.264;19.884;2022-07-23T03:59:12;564.10;1664.00
55329;DHT22;41205;44.264;19.884;2022-07-23T04:01:37;564.10;1664.00
55329;DHT22;41205;44.264;19.884;2022-07-23T04:04:03;588.80;1664.00
55329;DHT22;41205;44.264;19.884;2022-07-23T04:06:28;588.90;1664.00
55329;DHT22;41205;44.264;19.884;2022-07-23T04:08:54;588.80;1689.60
55329;DHT22;41205;44.264;19.884;2022-07-23T04:11:20;589.00;1689.60
55329;DHT22;41205;44.264;19.884;2022-07-23T04:13:45;589.10;1664.00
55329;DHT22;41205;44.264;19.884;2022-07-23T04:16:11;589.20;1664.00
55329;DHT22;41205;44.264;19.884;2022-07-23T04:18:36;589.30;1664.00
55329;DHT22;41205;44.264;19.884;2022-07-23T04:21:02;589.30;1638.40
55329;DHT22;41205;44.264;19.884;2022-07-23T04:23:27;589.50;1638.40
55329;DHT22;41205;44.264;19.884;2022-07-23T04:25:53;589.50;1638.40
55329;DHT22;41205;44.264;19.884;2022-07-23T04:28:18;589.50;1612.80
55329;DHT22;41205;44.264;19.884;2022-07-23T04:30:44;589.70;1638.40
55329;DHT22;41205;44.264;19.884;2022-07-23T04:33:10;589.70;1638.40
55329;DHT22;41205;44.264;19.884;2022-07-23T04:35:35;589.70;1638.40
55329;DHT22;41205;44.264;19.884;2022-07-23T04:38:01;589.70;1638.40
55329;DHT22;41205;44.264;19.884;2022-07-23T04:40:27;614.40;1612.80
55329;DHT22;41205;44.264;19.884;2022-07-23T04:42:53;614.60;1612.80
55329;DHT22;41205;44.264;19.884;2022-07-23T04:45:19;614.70;1612.80
55329;DHT22;41205;44.264;19.884;2022-07-23T04:47:45;614.90;1612.80
55329;DHT22;41205;44.264;19.884;2022-07-23T04:50:11;615.00;1587.20
55329;DHT22;41205;44.264;19.884;2022-07-23T04:52:37;640.00;1587.20
55329;DHT22;41205;44.264;19.884;2022-07-23T04:55:03;666.20;1510.40
55329;DHT22;41205;44.264;19.884;2022-07-23T04:57:29;768.40;1305.60
55329;DHT22;41205;44.264;19.884;2022-07-23T04:59:55;820.10;1177.60
55329;DHT22;41205;44.264;19.884;2022-07-23T05:02:20;870.70;1100.80
55329;DHT22;41205;44.264;19.884;2022-07-23T05:04:46;896.70;1049.60
55329;DHT22;41205;44.264;19.884;2022-07-23T05:07:11;921.80;1049.60
55329;DHT22;41205;44.264;19.884;2022-07-23T05:09:37;922.50;998.40
55329;DHT22;41205;44.264;19.884;2022-07-23T05:12:02;948.00;947.20
55329;DHT22;41205;44.264;19.884;2022-07-23T05:14:28;947.70;972.80
55329;DHT22;41205;44.264;19.884;2022-07-23T05:16:54;947.90;947.20
55329;DHT22;41205;44.264;19.884;2022-07-23T05:19:19;947.80;947.20
55329;DHT22;41205;44.264;19.884;2022-07-23T05:21:45;972.80;972.80
55329;DHT22;41205;44.264;19.884;2022-07-23T05:24:11;973.50;947.20
55329;DHT22;41205;44.264;19.884;2022-07-23T05:26:36;998.70;947.20
55329;DHT22;41205;44.264;19.884;2022-07-23T05:29:02;998.80;947.20
55329;DHT22;41205;44.264;19.884;2022-07-23T05:31:27;998.90;921.60
55329;DHT22;41205;44.264;19.884;2022-07-23T05:33:53;1024.40;896.00
55329;DHT22;41205;44.264;19.884;2022-07-23T05:36:18;1049.70;896.00
55329;DHT22;41205;44.264;19.884;2022-07-23T05:38:44;1050.20;896.00
55329;DHT22;41205;44.264;19.884;2022-07-23T05:41:09;1075.30;896.00
55329;DHT22;41205;44.264;19.884;2022-07-23T05:43:35;1100.90;870.40
55329;DHT22;41205;44.264;19.884;2022-07-23T05:46:00;1101.50;844.80
55329;DHT22;41205;44.264;19.884;2022-07-23T05:48:26;1101.50;844.80
55329;DHT22;41205;44.264;19.884;2022-07-23T05:50:52;1126.50;844.80
55329;DHT22;41205;44.264;19.884;2022-07-23T05:53:18;1101.70;819.20
55329;DHT22;41205;44.264;19.884;2022-07-23T05:58:09;1101.50;844.80
55329;DHT22;41205;44.264;19.884;2022-07-23T06:00:35;1126.90;844.80
55329;DHT22;41205;44.264;19.884;2022-07-23T06:12:44;1126.70;844.80
55329;DHT22;41205;44.264;19.884;2022-07-23T06:20:07;1178.50;768.00
55329;DHT22;41205;44.264;19.884;2022-07-23T06:22:34;1177.70;793.60
55329;DHT22;41205;44.264;19.884;2022-07-23T06:24:59;1178.00;768.00
55329;DHT22;41205;44.264;19.884;2022-07-23T06:27:25;1178.20;768.00
55329;DHT22;41205;44.264;19.884;2022-07-23T06:29:50;1178.10;768.00
55329;DHT22;41205;44.264;19.884;2022-07-23T06:32:16;1178.30;768.00
55329;DHT22;41205;44.264;19.884;2022-07-23T06:34:41;1203.20;768.00
55329;DHT22;41205;44.264;19.884;2022-07-23T06:37:07;1178.30;768.00
55329;DHT22;41205;44.264;19.884;2022-07-23T06:41:58;1178.10;768.00
55329;DHT22;41205;44.264;19.884;2022-07-23T06:44:26;1203.70;742.40
55329;DHT22;41205;44.264;19.884;2022-07-23T06:46:51;1203.40;768.00
55329;DHT22;41205;44.264;19.884;2022-07-23T06:49:17;1203.60;716.80
55329;DHT22;41205;44.264;19.884;2022-07-23T06:51:42;1229.20;742.40
55329;DHT22;41205;44.264;19.884;2022-07-23T06:54:08;1254.90;742.40
55329;DHT22;41205;44.264;19.884;2022-07-23T06:56:33;1255.10;716.80
55329;DHT22;41205;44.264;19.884;2022-07-23T06:58:59;1229.40;716.80
55329;DHT22;41205;44.264;19.884;2022-07-23T07:01:25;1204.10;716.80
55329;DHT22;41205;44.264;19.884;2022-07-23T07:03:50;1204.10;716.80
55329;DHT22;41205;44.264;19.884;2022-07-23T07:06:16;1228.90;742.40
55329;DHT22;41205;44.264;19.884;2022-07-23T07:08:42;1254.90;716.80
55329;DHT22;41205;44.264;19.884;2022-07-23T07:11:09;1255.30;691.20
55329;DHT22;41205;44.264;19.884;2022-07-23T07:13:35;1254.90;716.80
55329;DHT22;41205;44.264;19.884;2022-07-23T07:16:00;1254.80;716.80
55329;DHT22;41205;44.264;19.884;2022-07-23T07:18:26;1254.50;742.40
55329;DHT22;41205;44.264;19.884;2022-07-23T07:20:51;1254.80;742.40
55329;DHT22;41205;44.264;19.884;2022-07-23T07:23:17;1229.00;742.40
55329;DHT22;41205;44.264;19.884;2022-07-23T07:25:43;1203.40;742.40
55329;DHT22;41205;44.264;19.884;2022-07-23T07:28:08;1204.10;742.40
55329;DHT22;41205;44.264;19.884;2022-07-23T07:30:34;1229.50;716.80
55329;DHT22;41205;44.264;19.884;2022-07-23T07:32:59;1255.00;716.80
55329;DHT22;41205;44.264;19.884;2022-07-23T07:35:25;1254.50;716.80
55329;DHT22;41205;44.264;19.884;2022-07-23T07:37:50;1229.40;716.80
55329;DHT22;41205;44.264;19.884;2022-07-23T07:40:16;1229.50;716.80
55329;DHT22;41205;44.264;19.884;2022-07-23T07:42:48;1280.20;716.80
55329;DHT22;41205;44.264;19.884;2022-07-23T07:45:14;1255.30;716.80
55329;DHT22;41205;44.264;19.884;2022-07-23T07:47:40;1229.30;716.80
55329;DHT22;41205;44.264;19.884;2022-07-23T07:50:06;1254.90;716.80
55329;DHT22;41205;44.264;19.884;2022-07-23T07:52:33;1254.80;716.80
55329;DHT22;41205;44.264;19.884;2022-07-23T07:54:59;1254.40;742.40
55329;DHT22;41205;44.264;19.884;2022-07-23T07:57:24;1254.90;742.40
55329;DHT22;41205;44.264;19.884;2022-07-23T07:59:50;1254.40;716.80
55329;DHT22;41205;44.264;19.884;2022-07-23T08:02:15;1254.80;716.80
55329;DHT22;41205;44.264;19.884;2022-07-23T08:04:41;1254.40;742.40
55329;DHT22;41205;44.264;19.884;2022-07-23T08:07:06;1280.50;665.60
55329;DHT22;41205;44.264;19.884;2022-07-23T08:09:32;1280.90;665.60
55329;DHT22;41205;44.264;19.884;2022-07-23T08:11:57;1280.90;665.60
55329;DHT22;41205;44.264;19.884;2022-07-23T08:14:23;1280.40;691.20
55329;DHT22;41205;44.264;19.884;2022-07-23T08:16:49;1254.40;716.80
55329;DHT22;41205;44.264;19.884;2022-07-23T08:19:14;1255.30;691.20
55329;DHT22;41205;44.264;19.884;2022-07-23T08:21:40;1280.90;665.60
55329;DHT22;41205;44.264;19.884;2022-07-23T08:24:05;1254.60;691.20
55329;DHT22;41205;44.264;19.884;2022-07-23T08:26:31;1229.20;691.20
55329;DHT22;41205;44.264;19.884;2022-07-23T08:28:56;1152.70;716.80
55329;DHT22;41205;44.264;19.884;2022-07-23T08:31:22;1127.00;768.00
55329;DHT22;41205;44.264;19.884;2022-07-23T08:33:47;1075.80;742.40
55329;DHT22;41205;44.264;19.884;2022-07-23T08:36:13;1050.30;793.60
55329;DHT22;41205;44.264;19.884;2022-07-23T08:38:39;1049.70;793.60
55329;DHT22;41205;44.264;19.884;2022-07-23T08:41:04;1024.90;793.60
55329;DHT22;41205;44.264;19.884;2022-07-23T08:46:00;1024.50;793.60
55329;DHT22;41205;44.264;19.884;2022-07-23T08:48:27;998.80;819.20
55329;DHT22;41205;44.264;19.884;2022-07-23T08:50:53;973.70;793.60
55329;DHT22;41205;44.264;19.884;2022-07-23T08:53:20;973.50;793.60
55329;DHT22;41205;44.264;19.884;2022-07-23T08:55:46;973.70;768.00
55329;DHT22;41205;44.264;19.884;2022-07-23T08:58:12;973.60;793.60
55329;DHT22;41205;44.264;19.884;2022-07-23T09:00:38;998.40;819.20
55329;DHT22;41205;44.264;19.884;2022-07-23T09:03:03;998.70;819.20
55329;DHT22;41205;44.264;19.884;2022-07-23T09:05:29;998.40;844.80
55329;DHT22;41205;44.264;19.884;2022-07-23T09:13:46;973.70;793.60
55329;DHT22;41205;44.264;19.884;2022-07-23T09:16:09;973.20;844.80
55329;DHT22;41205;44.264;19.884;2022-07-23T09:21:29;998.40;844.80
55329;DHT22;41205;44.264;19.884;2022-07-23T09:28:57;973.60;793.60
55329;DHT22;41205;44.264;19.884;2022-07-23T09:31:23;973.20;819.20
55329;DHT22;41205;44.264;19.884;2022-07-23T09:33:49;973.20;819.20
55329;DHT22;41205;44.264;19.884;2022-07-23T09:36:15;973.60;819.20
55329;DHT22;41205;44.264;19.884;2022-07-23T09:38:50;973.40;844.80
55329;DHT22;41205;44.264;19.884;2022-07-23T09:41:16;973.20;819.20
55329;DHT22;41205;44.264;19.884;2022-07-23T09:43:42;973.70;819.20
55329;DHT22;41205;44.264;19.884;2022-07-23T09:48:42;973.30;844.80
55329;DHT22;41205;44.264;19.884;2022-07-23T09:51:08;973.60;819.20
55329;DHT22;41205;44.264;19.884;2022-07-23T09:53:33;973.30;844.80
55329;DHT22;41205;44.264;19.884;2022-07-23T09:55:59;973.10;844.80
55329;DHT22;41205;44.264;19.884;2022-07-23T09:58:25;973.30;870.40
55329;DHT22;41205;44.264;19.884;2022-07-23T10:00:52;973.00;870.40
55329;DHT22;41205;44.264;19.884;2022-07-23T10:03:18;973.40;870.40
55329;DHT22;41205;44.264;19.884;2022-07-23T10:05:44;973.40;870.40
55329;DHT22;41205;44.264;19.884;2022-07-23T10:08:13;973.40;844.80
55329;DHT22;41205;44.264;19.884;2022-07-23T10:10:42;973.70;870.40
55329;DHT22;41205;44.264;19.884;2022-07-23T10:13:09;973.70;870.40
55329;DHT22;41205;44.264;19.884;2022-07-23T10:15:46;973.60;870.40
55329;DHT22;41205;44.264;19.884;2022-07-23T10:18:12;973.30;870.40
55329;DHT22;41205;44.264;19.884;2022-07-23T10:20:39;973.60;870.40
55329;DHT22;41205;44.264;19.884;2022-07-23T10:23:10;973.50;870.40
55329;DHT22;41205;44.264;19.884;2022-07-23T10:25:41;973.40;870.40
55329;DHT22;41205;44.264;19.884;2022-07-23T10:31:05;973.30;896.00
55329;DHT22;41205;44.264;19.884;2022-07-23T10:36:18;973.40;896.00
55329;DHT22;41205;44.264;19.884;2022-07-23T10:41:19;973.00;921.60
55329;DHT22;41205;44.264;19.884;2022-07-23T10:44:11;973.10;921.60
55329;DHT22;41205;44.264;19.884;2022-07-23T10:46:57;973.20;896.00
55329;DHT22;41205;44.264;19.884;2022-07-23T10:49:29;973.20;896.00
55329;DHT22;41205;44.264;19.884;2022-07-23T10:54:48;973.50;921.60
55329;DHT22;41205;44.264;19.884;2022-07-23T10:57:15;973.40;896.00
55329;DHT22;41205;44.264;19.884;2022-07-23T11:02:25;973.20;921.60
55329;DHT22;41205;44.264;19.884;2022-07-23T11:04:52;973.10;921.60
55329;DHT22;41205;44.264;19.884;2022-07-23T11:07:17;973.20;921.60
55329;DHT22;41205;44.264;19.884;2022-07-23T12:08:09;998.50;921.60
55329;DHT22;41205;44.264;19.884;2022-07-23T12:10:39;998.50;921.60
55329;DHT22;41205;44.264;19.884;2022-07-23T12:13:07;998.50;921.60
55329;DHT22;41205;44.264;19.884;2022-07-23T12:15:37;998.50;921.60
55329;DHT22;41205;44.264;19.884;2022-07-23T12:18:05;998.50;921.60
55329;DHT22;41205;44.264;19.884;2022-07-23T12:20:32;973.60;896.00
55329;DHT22;41205;44.264;19.884;2022-07-23T12:47:18;998.80;921.60
55329;DHT22;41205;44.264;19.884;2022-07-23T12:49:43;998.50;921.60
55329;DHT22;41205;44.264;19.884;2022-07-23T12:52:15;998.50;947.20
55329;DHT22;41205;44.264;19.884;2022-07-23T12:54:41;998.50;947.20
55329;DHT22;41205;44.264;19.884;2022-07-23T12:57:07;998.40;921.60
55329;DHT22;41205;44.264;19.884;2022-07-23T12:59:32;973.70;896.00
55329;DHT22;41205;44.264;19.884;2022-07-23T13:01:58;973.60;896.00
55329;DHT22;41205;44.264;19.884;2022-07-23T13:04:24;973.70;921.60
55329;DHT22;41205;44.264;19.884;2022-07-23T13:09:19;973.70;896.00
55329;DHT22;41205;44.264;19.884;2022-07-23T13:11:45;973.70;896.00
55329;DHT22;41205;44.264;19.884;2022-07-23T13:14:11;973.70;896.00
55329;DHT22;41205;44.264;19.884;2022-07-23T13:16:38;973.70;896.00
55329;DHT22;41205;44.264;19.884;2022-07-23T15:54:50;973.00;921.60
55329;DHT22;41205;44.264;19.884;2022-07-23T15:57:15;972.80;921.60
55329;DHT22;41205;44.264;19.884;2022-07-23T18:03:49;871.10;1100.80
55329;DHT22;41205;44.264;19.884;2022-07-23T18:18:27;845.70;1152.00
55329;DHT22;41205;44.264;19.884;2022-07-23T18:20:56;845.60;1152.00
55329;DHT22;41205;44.264;19.884;2022-07-23T18:23:22;845.40;1177.60
55329;DHT22;41205;44.264;19.884;2022-07-23T18:25:47;845.30;1203.20
55329;DHT22;41205;44.264;19.884;2022-07-23T18:28:13;845.20;1177.60
55329;DHT22;41205;44.264;19.884;2022-07-23T18:30:39;845.10;1177.60
55329;DHT22;41205;44.264;19.884;2022-07-23T18:33:04;845.10;1177.60
55329;DHT22;41205;44.264;19.884;2022-07-23T18:35:30;844.90;1203.20
55329;DHT22;41205;44.264;19.884;2022-07-23T18:37:55;844.90;1228.80
55329;DHT22;41205;44.264;19.884;2022-07-23T18:40:21;820.10;1203.20
55329;DHT22;41205;44.264;19.884;2022-07-23T18:42:47;820.10;1203.20
55329;DHT22;41205;44.264;19.884;2022-07-23T18:45:13;820.00;1228.80
55329;DHT22;41205;44.264;19.884;2022-07-23T18:52:30;819.80;1228.80
55329;DHT22;41205;44.264;19.884;2022-07-23T18:54:56;819.60;1254.40
55329;DHT22;41205;44.264;19.884;2022-07-23T18:57:22;819.60;1254.40
55329;DHT22;41205;44.264;19.884;2022-07-23T18:59:47;819.40;1254.40
55329;DHT22;41205;44.264;19.884;2022-07-23T19:02:13;819.40;1254.40
55329;DHT22;41205;44.264;19.884;2022-07-23T19:04:39;819.40;1254.40
55329;DHT22;41205;44.264;19.884;2022-07-23T19:07:05;819.30;1254.40
55329;DHT22;41205;44.264;19.884;2022-07-23T19:09:30;819.30;1280.00
55329;DHT22;41205;44.264;19.884;2022-07-23T19:11:56;819.20;1280.00
55329;DHT22;41205;44.264;19.884;2022-07-23T19:14:22;794.50;1280.00
55329;DHT22;41205;44.264;19.884;2022-07-23T19:16:47;794.40;1280.00
55329;DHT22;41205;44.264;19.884;2022-07-23T19:19:13;794.40;1280.00
55329;DHT22;41205;44.264;19.884;2022-07-23T19:21:38;794.40;1280.00
55329;DHT22;41205;44.264;19.884;2022-07-23T19:24:04;794.50;1280.00
55329;DHT22;41205;44.264;19.884;2022-07-23T19:26:30;794.30;1280.00
55329;DHT22;41205;44.264;19.884;2022-07-23T19:28:55;794.20;1305.60
55329;DHT22;41205;44.264;19.884;2022-07-23T19:31:21;794.10;1305.60
55329;DHT22;41205;44.264;19.884;2022-07-23T19:33:47;794.10;1305.60
55329;DHT22;41205;44.264;19.884;2022-07-23T19:36:13;794.00;1305.60
55329;DHT22;41205;44.264;19.884;2022-07-23T19:38:39;793.90;1305.60
55329;DHT22;41205;44.264;19.884;2022-07-23T19:41:04;794.30;1305.60
55329;DHT22;41205;44.264;19.884;2022-07-23T19:43:30;793.80;1331.20
55329;DHT22;41205;44.264;19.884;2022-07-23T19:45:56;793.70;1331.20
55329;DHT22;41205;44.264;19.884;2022-07-23T19:48:22;793.70;1331.20
55329;DHT22;41205;44.264;19.884;2022-07-23T19:50:49;793.60;1331.20
55329;DHT22;41205;44.264;19.884;2022-07-23T19:53:15;793.60;1331.20
55329;DHT22;41205;44.264;19.884;2022-07-23T19:55:44;793.70;1305.60
55329;DHT22;41205;44.264;19.884;2022-07-23T19:58:10;793.60;1331.20
55329;DHT22;41205;44.264;19.884;2022-07-23T20:00:36;768.60;1331.20
55329;DHT22;41205;44.264;19.884;2022-07-23T20:07:55;768.40;1331.20
55329;DHT22;41205;44.264;19.884;2022-07-23T20:10:21;768.30;1356.80
55329;DHT22;41205;44.264;19.884;2022-07-23T20:12:47;768.40;1356.80
55329;DHT22;41205;44.264;19.884;2022-07-23T20:15:13;768.40;1356.80
55329;DHT22;41205;44.264;19.884;2022-07-23T20:17:38;768.40;1356.80
55329;DHT22;41205;44.264;19.884;2022-07-23T20:20:04;768.30;1356.80
55329;DHT22;41205;44.264;19.884;2022-07-23T20:22:31;768.10;1356.80
55329;DHT22;41205;44.264;19.884;2022-07-23T20:24:56;768.10;1382.40
55329;DHT22;41205;44.264;19.884;2022-07-23T20:27:22;768.10;1382.40
55329;DHT22;41205;44.264;19.884;2022-07-23T20:29:48;768.00;1382.40
55329;DHT22;41205;44.264;19.884;2022-07-23T20:32:13;768.00;1356.80
55329;DHT22;41205;44.264;19.884;2022-07-23T20:34:39;768.00;1382.40
55329;DHT22;41205;44.264;19.884;2022-07-23T20:37:05;743.30;1382.40
55329;DHT22;41205;44.264;19.884;2022-07-23T20:44:22;743.30;1382.40
55329;DHT22;41205;44.264;19.884;2022-07-23T20:46:47;743.00;1408.00
55329;DHT22;41205;44.264;19.884;2022-07-23T20:49:13;743.10;1408.00
55329;DHT22;41205;44.264;19.884;2022-07-23T20:51:43;742.90;1433.60
55329;DHT22;41205;44.264;19.884;2022-07-23T20:59:00;742.80;1433.60
55329;DHT22;41205;44.264;19.884;2022-07-23T21:01:26;742.80;1433.60
55329;DHT22;41205;44.264;19.884;2022-07-23T21:03:51;742.80;1433.60
55329;DHT22;41205;44.264;19.884;2022-07-23T21:06:17;742.70;1433.60
55329;DHT22;41205;44.264;19.884;2022-07-23T21:08:43;742.50;1433.60
55329;DHT22;41205;44.264;19.884;2022-07-23T21:11:08;742.50;1459.20
55329;DHT22;41205;44.264;19.884;2022-07-23T21:13:34;742.50;1459.20
55329;DHT22;41205;44.264;19.884;2022-07-23T21:15:59;742.50;1459.20
55329;DHT22;41205;44.264;19.884;2022-07-23T21:18:25;742.50;1459.20
55329;DHT22;41205;44.264;19.884;2022-07-23T21:20:51;742.50;1459.20
55329;DHT22;41205;44.264;19.884;2022-07-23T21:23:37;742.50;1433.60
55329;DHT22;41205;44.264;19.884;2022-07-23T21:26:03;742.50;1433.60
55329;DHT22;41205;44.264;19.884;2022-07-23T21:28:29;717.70;1433.60
55329;DHT22;41205;44.264;19.884;2022-07-23T21:30:55;717.70;1433.60
55329;DHT22;41205;44.264;19.884;2022-07-23T21:33:20;717.60;1459.20
55329;DHT22;41205;44.264;19.884;2022-07-23T21:35:46;717.60;1459.20
55329;DHT22;41205;44.264;19.884;2022-07-23T21:38:11;717.50;1433.60
55329;DHT22;41205;44.264;19.884;2022-07-23T21:40:37;717.50;1433.60
55329;DHT22;41205;44.264;19.884;2022-07-23T21:43:03;717.50;1433.60
55329;DHT22;41205;44.264;19.884;2022-07-23T21:45:29;717.50;1433.60
55329;DHT22;41205;44.264;19.884;2022-07-23T21:47:55;717.50;1433.60
55329;DHT22;41205;44.264;19.884;2022-07-23T21:50:20;717.50;1433.60
55329;DHT22;41205;44.264;19.884;2022-07-23T21:52:46;717.40;1459.20
55329;DHT22;41205;44.264;19.884;2022-07-23T21:55:14;717.40;1459.20
55329;DHT22;41205;44.264;19.884;2022-07-23T21:57:40;717.40;1459.20
55329;DHT22;41205;44.264;19.884;2022-07-23T22:00:10;717.30;1459.20
55329;DHT22;41205;44.264;19.884;2022-07-23T22:02:36;717.30;1459.20